首页
METAR-TAF:

METAR-TAF

机场 :

韦策机场

Weeze, 德国

纬度: 51-36-09N, 经度: 006-08-32E, 海拔: 32米

当前天气观测

该预报发布于19分钟前的14:20 UTC
风速7节,风向西转西南,在南转西南西转西北之间变化
温度 22°C
湿度 35%
气压 1017 hPa
能见度10公里或以上
1500米以下无云,无积雨云

METAR: EDLV 041420Z 24007KT 200V300 CAVOK 22/06 Q1017

时间: 16:39 (14:39 UTC)

预报

该预报发布于3小时和39分钟前的11:00 UTC
预报有效从04日的 12点(UTC)到 05日的 12点(UTC)
风速7节,风向西转西北
能见度10公里或以上
1500米以下无云,无积雨云
成为
从 04日的 17点(UTC)到 04日的 19点(UTC)
风速2节,风向多变
成为
从 05日的 02点(UTC)到 05日的 05点(UTC)
风速5节,风向南转南东
成为
从 05日的 07点(UTC)到 05日的 10点(UTC)
风速9节,风向西南

TAF: EDLV 041100Z 0412/0512 30007KT CAVOK BECMG 0417/0419 VRB02KT BECMG 0502/0505 16005KT BECMG 0507/0510 22009KT

超过4000个机场的气象观测和天气预报(METAR&TAF报告)。

可查询的气象台以黄色和红色小点在地图上表示。

将鼠标移到小点上方,可查看气象台名称。

然后点击查看天气观测和预报。

如需切换地图:点击带黑十字的绿色按钮放大地图;点击带横线的绿色按钮缩小地图;或者点击绿色箭头查看邻近地区的地图。


METAR-TAF: